createdAt,value
2019-04-14T00:01:30.640Z,89.55
2019-04-14T00:04:16.142Z,89.76
2019-04-14T00:06:46.368Z,89.53
2019-04-14T00:09:18.778Z,89.41
2019-04-14T00:11:48.562Z,89.99
2019-04-14T00:14:18.589Z,89.50
2019-04-14T00:16:48.982Z,89.00
2019-04-14T00:19:19.561Z,89.14
2019-04-14T00:21:50.071Z,89.45
2019-04-14T00:24:20.613Z,89.28
2019-04-14T00:26:50.998Z,89.42
2019-04-14T00:29:21.738Z,89.22
2019-04-14T00:31:53.668Z,89.13
2019-04-14T00:34:40.456Z,89.67
2019-04-14T00:37:20.519Z,89.73
2019-04-14T00:39:53.236Z,89.27
2019-04-14T00:42:54.180Z,89.37
2019-04-14T00:45:40.245Z,89.16
2019-04-14T00:48:18.946Z,89.98
2019-04-14T00:50:47.371Z,89.98
2019-04-14T00:53:17.095Z,90.21
2019-04-14T00:55:46.695Z,89.69
2019-04-14T00:58:17.076Z,90.03
2019-04-14T01:00:47.374Z,89.32
2019-04-14T01:03:17.754Z,89.42
2019-04-14T01:05:48.181Z,89.67
2019-04-14T01:08:18.508Z,89.29
2019-04-14T01:10:48.287Z,89.35
2019-04-14T01:13:18.093Z,88.83
2019-04-14T01:15:57.804Z,88.62
2019-04-14T01:18:19.024Z,88.40
2019-04-14T01:20:49.238Z,88.27
2019-04-14T01:23:19.430Z,88.40
2019-04-14T01:25:49.946Z,88.99
2019-04-14T01:28:20.124Z,87.81
2019-04-14T01:30:50.116Z,88.08
2019-04-14T01:33:20.534Z,88.53
2019-04-14T01:35:50.993Z,88.05
2019-04-14T01:38:21.199Z,88.05
2019-04-14T01:40:51.048Z,87.94
2019-04-14T01:43:21.358Z,87.46
2019-04-14T01:46:03.681Z,87.73
2019-04-14T01:48:23.577Z,88.12
2019-04-14T01:51:11.393Z,87.05
2019-04-14T01:53:48.886Z,86.55
2019-04-14T01:56:29.944Z,86.71
2019-04-14T01:59:00.046Z,86.32
2019-04-14T02:01:32.481Z,86.36
2019-04-14T02:04:02.941Z,85.66
2019-04-14T02:06:33.360Z,86.03
2019-04-14T02:09:05.383Z,85.25
2019-04-14T02:11:35.563Z,86.18
2019-04-14T02:14:06.138Z,85.85
2019-04-14T02:16:41.913Z,85.68
2019-04-14T02:19:06.784Z,86.00
2019-04-14T02:21:36.741Z,85.16
2019-04-14T02:24:07.093Z,85.64
2019-04-14T02:26:37.329Z,84.52
2019-04-14T02:29:07.920Z,84.97
2019-04-14T02:32:03.602Z,84.64
2019-04-14T02:37:10.729Z,83.97
2019-04-14T02:39:42.050Z,84.55
2019-04-14T02:42:20.908Z,83.85
2019-04-14T02:49:44.121Z,84.36
2019-04-14T02:52:20.588Z,83.05
2019-04-14T02:54:51.841Z,83.40
2019-04-14T02:57:16.787Z,83.48
2019-04-14T02:59:49.506Z,81.74
2019-04-14T03:04:50.667Z,82.46
2019-04-14T03:07:34.195Z,82.57
2019-04-14T03:09:53.667Z,82.13
2019-04-14T03:15:01.564Z,82.41
2019-04-14T03:20:35.614Z,82.74
2019-04-14T03:23:19.508Z,82.43
2019-04-14T03:25:49.609Z,82.78
2019-04-14T03:28:28.396Z,83.29
2019-04-14T03:34:06.705Z,83.58
2019-04-14T03:38:48.044Z,83.96
2019-04-14T03:48:54.056Z,81.46
2019-04-14T03:53:41.321Z,81.29
2019-04-14T03:56:25.266Z,80.33
2019-04-14T03:58:55.385Z,80.25
2019-04-14T04:01:25.796Z,80.05
2019-04-14T04:03:56.406Z,79.82
2019-04-14T04:06:27.079Z,79.77
2019-04-14T04:08:57.476Z,78.83
2019-04-14T04:11:28.026Z,78.81
2019-04-14T04:13:58.507Z,78.88
2019-04-14T04:16:48.279Z,78.89
2019-04-14T04:19:25.114Z,78.06
2019-04-14T04:22:32.593Z,78.52
2019-04-14T04:25:22.609Z,77.66
2019-04-14T04:28:14.469Z,77.39
2019-04-14T04:30:58.550Z,77.78
2019-04-14T04:33:56.529Z,77.46
2019-04-14T04:36:31.325Z,76.77
2019-04-14T04:39:08.284Z,76.92
2019-04-14T04:41:38.643Z,76.57
2019-04-14T04:44:09.316Z,77.03
2019-04-14T04:46:39.489Z,76.53
2019-04-14T04:49:15.930Z,76.02
2019-04-14T04:51:40.129Z,75.75
2019-04-14T04:54:10.290Z,76.10
2019-04-14T04:56:40.545Z,76.23
2019-04-14T04:59:10.294Z,76.63
2019-04-14T05:01:40.762Z,76.05
2019-04-14T05:04:11.102Z,75.54
2019-04-14T05:07:09.955Z,76.53
2019-04-14T05:10:04.790Z,76.38
2019-04-14T05:13:02.957Z,76.39
2019-04-14T05:15:57.598Z,76.38
2019-04-14T05:18:29.010Z,76.69
2019-04-14T05:20:59.617Z,76.16
2019-04-14T05:23:29.915Z,75.47
2019-04-14T05:26:00.563Z,75.70
2019-04-14T05:28:31.003Z,75.85
2019-04-14T05:31:01.293Z,75.69
2019-04-14T05:33:31.479Z,75.31
2019-04-14T05:36:02.078Z,76.14
2019-04-14T05:38:33.509Z,75.98
2019-04-14T05:41:02.927Z,76.10
2019-04-14T05:43:41.565Z,76.10
2019-04-14T05:46:03.635Z,76.21
2019-04-14T05:48:33.755Z,76.14
2019-04-14T05:51:04.184Z,76.07
2019-04-14T05:53:33.682Z,75.72
2019-04-14T05:56:03.596Z,74.39
2019-04-14T05:58:33.961Z,74.05
2019-04-14T06:01:04.772Z,74.05
2019-04-14T06:03:34.307Z,74.80
2019-04-14T06:06:04.010Z,75.33
2019-04-14T06:08:33.744Z,75.29
2019-04-14T06:11:03.599Z,75.39
2019-04-14T06:13:32.994Z,74.65
2019-04-14T06:16:02.480Z,75.01
2019-04-14T06:18:32.100Z,74.93
2019-04-14T06:21:01.604Z,74.94
2019-04-14T06:23:31.434Z,74.42
2019-04-14T06:26:00.961Z,74.51
2019-04-14T06:28:30.358Z,75.02
2019-04-14T06:31:29.760Z,74.37
2019-04-14T06:34:18.197Z,73.32
2019-04-14T06:37:16.091Z,71.79
2019-04-14T06:39:48.369Z,71.63
2019-04-14T06:42:17.931Z,72.69
2019-04-14T06:44:47.751Z,73.93
2019-04-14T06:47:17.463Z,74.02
2019-04-14T06:49:49.225Z,74.88
2019-04-14T06:52:18.575Z,75.26
2019-04-14T06:54:48.326Z,75.70
2019-04-14T06:57:17.990Z,75.82
2019-04-14T06:59:47.749Z,76.86
2019-04-14T07:02:17.552Z,77.15
2019-04-14T07:04:46.943Z,76.99
2019-04-14T07:07:16.518Z,77.12
2019-04-14T07:09:46.283Z,76.39
2019-04-14T07:12:16.063Z,75.50
2019-04-14T07:14:45.658Z,75.72
2019-04-14T07:17:15.302Z,76.06
2019-04-14T07:19:45.020Z,75.85
2019-04-14T07:22:14.712Z,74.48
2019-04-14T07:24:44.529Z,74.29
2019-04-14T07:27:14.507Z,75.23
2019-04-14T07:29:52.097Z,74.60
2019-04-14T07:32:40.513Z,74.01
2019-04-14T07:35:21.869Z,74.19
2019-04-14T07:38:03.406Z,73.86
2019-04-14T07:40:50.252Z,73.77
2019-04-14T07:43:27.705Z,72.85
2019-04-14T07:46:16.394Z,72.47
2019-04-14T07:48:57.676Z,71.19
2019-04-14T07:52:01.421Z,71.69
2019-04-14T07:54:47.552Z,70.98
2019-04-14T07:57:37.899Z,69.30
2019-04-14T08:00:12.163Z,68.26
2019-04-14T08:02:58.918Z,68.40
2019-04-14T08:05:31.429Z,67.17
2019-04-14T08:08:01.019Z,65.82
2019-04-14T08:10:30.835Z,66.91
2019-04-14T08:13:00.284Z,66.33
2019-04-14T08:15:29.892Z,65.50
2019-04-14T08:17:59.524Z,65.88
2019-04-14T08:20:29.222Z,66.12
2019-04-14T08:22:58.626Z,66.27
2019-04-14T08:25:28.339Z,66.29
2019-04-14T08:27:58.194Z,66.61
2019-04-14T08:30:28.072Z,65.92
2019-04-14T08:32:57.760Z,64.80
2019-04-14T08:35:27.359Z,65.32
2019-04-14T08:37:56.903Z,64.20
2019-04-14T08:40:26.795Z,64.02
2019-04-14T08:43:13.962Z,63.94
2019-04-14T08:46:08.461Z,64.16
2019-04-14T08:49:06.308Z,63.18
2019-04-14T08:51:47.393Z,64.16
2019-04-14T08:54:23.240Z,64.33
2019-04-14T08:56:59.733Z,65.30
2019-04-14T09:00:00.557Z,62.86
2019-04-14T09:02:57.749Z,64.21
2019-04-14T09:05:47.082Z,62.82
2019-04-14T09:08:29.896Z,61.44
2019-04-14T09:11:01.240Z,61.65
2019-04-14T09:13:30.759Z,60.57
2019-04-14T09:16:00.569Z,59.01
2019-04-14T09:18:30.370Z,58.37
2019-04-14T09:20:59.907Z,58.61
2019-04-14T09:23:29.350Z,53.87
2019-04-14T09:25:59.082Z,54.27
2019-04-14T09:28:28.760Z,52.53
2019-04-14T09:30:58.340Z,54.14
2019-04-14T09:33:28.223Z,50.53
2019-04-14T09:35:58.147Z,51.47
2019-04-14T09:38:27.873Z,52.17
2019-04-14T09:40:57.589Z,51.97
2019-04-14T09:43:27.294Z,51.06
2019-04-14T09:45:56.796Z,45.95
2019-04-14T09:48:26.480Z,42.60
2019-04-14T09:51:04.584Z,40.73
2019-04-14T09:53:27.398Z,39.48
2019-04-14T09:55:56.957Z,37.21
2019-04-14T09:58:26.587Z,37.64
2019-04-14T10:00:56.106Z,35.43
2019-04-14T10:03:25.584Z,36.04
2019-04-14T10:05:54.972Z,36.66
2019-04-14T10:08:24.761Z,35.05
2019-04-14T10:10:54.333Z,35.41
2019-04-14T10:13:24.012Z,34.77
2019-04-14T10:15:53.554Z,35.01
2019-04-14T10:18:22.949Z,30.70
2019-04-14T10:20:52.629Z,32.17
2019-04-14T10:23:22.237Z,35.48
2019-04-14T10:25:51.959Z,36.94
2019-04-14T10:28:22.575Z,37.59
2019-04-14T10:30:52.173Z,37.90
2019-04-14T10:33:22.056Z,37.83
2019-04-14T10:35:51.543Z,36.91
2019-04-14T10:38:20.990Z,38.09
2019-04-14T10:40:50.607Z,38.92
2019-04-14T10:43:20.057Z,37.80
2019-04-14T10:45:49.562Z,38.02
2019-04-14T10:48:18.989Z,38.78
2019-04-14T10:50:48.388Z,38.88
2019-04-14T10:53:18.035Z,38.78
2019-04-14T10:55:47.517Z,37.50
2019-04-14T10:58:17.238Z,38.01
2019-04-14T11:00:46.817Z,37.33
2019-04-14T11:03:16.418Z,35.79
2019-04-14T11:05:57.713Z,35.00
2019-04-14T11:08:27.434Z,34.58
2019-04-14T11:10:56.819Z,33.28
2019-04-14T11:13:26.530Z,31.69
2019-04-14T11:15:56.025Z,29.82
2019-04-14T11:18:25.453Z,29.35
2019-04-14T11:20:57.460Z,27.52
2019-04-14T11:23:27.042Z,25.06
2019-04-14T11:25:56.541Z,21.22
2019-04-14T11:28:26.246Z,19.91
2019-04-14T11:30:55.677Z,17.09
2019-04-14T11:33:32.865Z,15.14
2019-04-14T11:36:18.916Z,18.15
2019-04-14T11:39:01.173Z,17.22
2019-04-14T11:41:30.676Z,15.48
2019-04-14T11:44:00.428Z,15.66
2019-04-14T11:46:29.889Z,16.39
2019-04-14T11:48:59.620Z,17.84
2019-04-14T11:51:29.213Z,17.87
2019-04-14T11:53:58.981Z,18.12
2019-04-14T11:56:28.357Z,17.61
2019-04-14T11:58:57.863Z,18.85
2019-04-14T12:01:51.961Z,19.50
2019-04-14T12:04:27.884Z,19.07
2019-04-14T12:07:05.544Z,20.35
2019-04-14T12:09:37.840Z,19.95
2019-04-14T12:12:09.762Z,19.13
2019-04-14T12:14:39.538Z,19.72
2019-04-14T12:17:09.048Z,19.20
2019-04-14T12:19:38.509Z,19.07
2019-04-14T12:22:08.872Z,17.90
2019-04-14T12:24:38.474Z,17.98
2019-04-14T12:27:08.405Z,18.70
2019-04-14T12:29:39.024Z,21.05
2019-04-14T12:32:09.147Z,22.34
2019-04-14T12:34:38.875Z,23.08
2019-04-14T12:37:08.578Z,24.99
2019-04-14T12:39:38.376Z,24.99
2019-04-14T12:42:30.930Z,28.16
2019-04-14T12:45:19.309Z,28.03
2019-04-14T12:47:58.367Z,27.23
2019-04-14T12:50:47.902Z,28.71
2019-04-14T12:53:17.364Z,30.22
2019-04-14T12:55:47.051Z,30.91
2019-04-14T12:58:17.196Z,32.34
2019-04-14T13:00:49.686Z,34.24
2019-04-14T13:03:20.047Z,35.64
2019-04-14T13:05:49.704Z,36.39
2019-04-14T13:08:19.405Z,36.83
2019-04-14T13:10:49.071Z,38.10
2019-04-14T13:13:18.850Z,39.70
2019-04-14T13:15:48.395Z,40.05
2019-04-14T13:18:17.938Z,41.51
2019-04-14T13:20:47.403Z,41.90
2019-04-14T13:23:17.108Z,44.25
2019-04-14T13:25:47.012Z,44.39
2019-04-14T13:28:16.543Z,45.77
2019-04-14T13:30:48.044Z,47.16
2019-04-14T13:33:17.724Z,46.85
2019-04-14T13:35:47.327Z,47.67
2019-04-14T13:38:16.943Z,47.52
2019-04-14T13:40:46.687Z,44.59
2019-04-14T13:43:16.250Z,43.21
2019-04-14T13:45:46.095Z,42.93
2019-04-14T13:48:15.798Z,43.73
2019-04-14T13:50:45.434Z,44.09
2019-04-14T13:53:14.968Z,42.98
2019-04-14T13:55:44.726Z,42.36
2019-04-14T13:58:14.450Z,42.90
2019-04-14T14:00:44.015Z,40.97
2019-04-14T14:03:13.407Z,42.07
2019-04-14T14:05:43.748Z,43.40
2019-04-14T14:08:13.677Z,44.49
2019-04-14T14:10:43.425Z,45.70
2019-04-14T14:13:25.425Z,48.15
2019-04-14T14:16:10.629Z,47.19
2019-04-14T14:18:58.072Z,48.10
2019-04-14T14:21:46.576Z,48.68
2019-04-14T14:24:32.876Z,49.48
2019-04-14T14:27:02.600Z,49.09
2019-04-14T14:29:32.108Z,49.01
2019-04-14T14:32:02.971Z,50.27
2019-04-14T14:34:32.683Z,50.62
2019-04-14T14:37:02.131Z,50.03
2019-04-14T14:39:31.575Z,49.56
2019-04-14T14:42:01.353Z,50.73
2019-04-14T14:44:42.599Z,51.74
2019-04-14T14:47:17.724Z,51.76
2019-04-14T14:50:08.930Z,52.26
2019-04-14T14:52:39.694Z,51.56
2019-04-14T14:55:09.680Z,51.70
2019-04-14T14:57:39.382Z,51.49
2019-04-14T15:00:14.822Z,51.67
2019-04-14T15:02:44.673Z,51.17
2019-04-14T15:05:14.111Z,51.71
2019-04-14T15:07:43.821Z,52.06
2019-04-14T15:10:13.399Z,52.90
2019-04-14T15:12:43.166Z,54.37
2019-04-14T15:15:12.841Z,53.91
2019-04-14T15:17:43.021Z,54.12
2019-04-14T15:20:12.950Z,55.15
2019-04-14T15:22:42.599Z,55.65
2019-04-14T15:25:12.352Z,55.45
2019-04-14T15:27:41.803Z,56.06
2019-04-14T15:30:16.638Z,56.30
2019-04-14T15:32:46.083Z,56.43
2019-04-14T15:35:15.914Z,56.05
2019-04-14T15:37:45.506Z,56.62
2019-04-14T15:40:15.194Z,56.14
2019-04-14T15:42:44.890Z,55.31
2019-04-14T15:45:14.549Z,55.45
2019-04-14T15:47:44.356Z,55.16
2019-04-14T15:50:13.890Z,55.43
2019-04-14T15:52:43.740Z,56.32
2019-04-14T15:55:14.622Z,56.03
2019-04-14T15:57:50.838Z,56.58
2019-04-14T16:00:39.558Z,55.67
2019-04-14T16:03:28.198Z,56.90
2019-04-14T16:06:17.437Z,56.71
2019-04-14T16:09:08.678Z,57.15
2019-04-14T16:12:12.416Z,57.23
2019-04-14T16:15:00.787Z,57.81
2019-04-14T16:17:55.290Z,58.50
2019-04-14T16:20:32.891Z,59.39
2019-04-14T16:23:02.281Z,60.07
2019-04-14T16:25:43.953Z,60.53
2019-04-14T16:28:19.209Z,61.08
2019-04-14T16:30:58.970Z,61.62
2019-04-14T16:33:35.855Z,61.92
2019-04-14T16:36:05.544Z,61.65
2019-04-14T16:38:35.043Z,62.23
2019-04-14T16:41:04.833Z,62.65
2019-04-14T16:43:34.338Z,62.79
2019-04-14T16:46:03.870Z,63.28
2019-04-14T16:48:33.438Z,63.29
2019-04-14T16:51:03.819Z,63.76
2019-04-14T16:53:35.764Z,63.67
2019-04-14T16:56:33.352Z,63.75
2019-04-14T16:59:06.609Z,63.80
2019-04-14T17:01:41.052Z,64.15
2019-04-14T17:04:10.590Z,64.76
2019-04-14T17:06:40.253Z,65.74
2019-04-14T17:09:09.953Z,66.24
2019-04-14T17:11:39.746Z,67.16
2019-04-14T17:14:14.903Z,67.74
2019-04-14T17:17:02.176Z,68.24
2019-04-14T17:19:59.972Z,68.90
2019-04-14T17:23:06.670Z,69.04
2019-04-14T17:25:41.656Z,69.67
2019-04-14T17:28:29.176Z,70.11
2019-04-14T17:31:05.923Z,70.32
2019-04-14T17:33:43.658Z,70.69
2019-04-14T17:36:47.570Z,71.03
2019-04-14T17:39:27.025Z,71.25
2019-04-14T17:42:18.255Z,71.32
2019-04-14T17:44:55.353Z,71.16
2019-04-14T17:47:41.636Z,71.49
2019-04-14T17:50:22.512Z,71.30
